Terminal Aerodrome Forecast
Issued by NWS Duluth, MN

Home | Current Version | Previous Version | Text Only | Print | Product List | Glossary On
Versions: 1 2 3 4 5 6 7 8 9 10 11 12 13 14 15 16 17 18 19 20 21 22 23 24 25 26 27 28 29 30
000
FTUS43 KDLH 311400 AAA
TAFDLH
TAF AMD
KDLH 311400Z 3114/0112 31009KT P6SM SCT002
     FM311430 31011KT P6SM SKC
     FM311600 31014G24KT P6SM SKC
     FM312200 33010KT P6SM SCT150
     FM010400 08006KT P6SM BKN120=

USA.gov is the U.S. government's official web portal to all federal, state and local government web resources and services.